Terminal Aerodrome Forecast
Issued by NWS Omaha/Valley, NE

Home | Current Version | Previous Version | Text Only | Print | Product List | Glossary On
Versions: 1 2 3 4 5 6 7 8 9 10 11 12 13 14 15 16 17 18 19
000
FTUS43 KOAX 281725
TAFOMA
TAF
KOMA 281725Z 2818/0118 34007KT P6SM OVC015
      TEMPO 2818/2821 5SM BR OVC009
     FM282100 35011KT P6SM VCSH OVC025
      TEMPO 2822/0102 4SM -RA OVC015
     FM010400 33007KT 4SM BR VCSH OVC010
     FM011200 31011G19KT P6SM BKN020
     FM011400 31012G20KT P6SM SCT035=

USA.gov is the U.S. government's official web portal to all federal, state and local government web resources and services.